sensor_id;sensor_type;location;lat;lon;timestamp;temperature;humidity
64670;DHT22;51080;51.690;5.174;2023-02-13T00:01:52;7.90;73.20
64670;DHT22;51080;51.690;5.174;2023-02-13T00:07:36;7.90;73.20
64670;DHT22;51080;51.690;5.174;2023-02-13T00:13:20;7.80;73.20
64670;DHT22;51080;51.690;5.174;2023-02-13T00:19:06;7.80;73.30
64670;DHT22;51080;51.690;5.174;2023-02-13T00:24:51;7.80;73.40
64670;DHT22;51080;51.690;5.174;2023-02-13T00:30:35;7.80;73.40
64670;DHT22;51080;51.690;5.174;2023-02-13T00:36:21;7.80;73.60
64670;DHT22;51080;51.690;5.174;2023-02-13T00:42:06;7.80;73.50
64670;DHT22;51080;51.690;5.174;2023-02-13T00:47:50;7.80;73.60
64670;DHT22;51080;51.690;5.174;2023-02-13T00:53:35;7.80;73.50
64670;DHT22;51080;51.690;5.174;2023-02-13T00:59:20;7.80;73.60
64670;DHT22;51080;51.690;5.174;2023-02-13T01:05:05;7.80;73.70
64670;DHT22;51080;51.690;5.174;2023-02-13T01:11:19;7.80;73.70
64670;DHT22;51080;51.690;5.174;2023-02-13T01:17:05;7.80;73.60
64670;DHT22;51080;51.690;5.174;2023-02-13T01:22:50;7.80;73.70
64670;DHT22;51080;51.690;5.174;2023-02-13T01:29:05;7.80;73.80
64670;DHT22;51080;51.690;5.174;2023-02-13T01:34:48;7.80;73.70
64670;DHT22;51080;51.690;5.174;2023-02-13T01:40:32;7.80;73.90
64670;DHT22;51080;51.690;5.174;2023-02-13T01:46:21;7.80;74.00
64670;DHT22;51080;51.690;5.174;2023-02-13T01:52:08;7.80;74.00
64670;DHT22;51080;51.690;5.174;2023-02-13T01:58:02;7.80;74.10
64670;DHT22;51080;51.690;5.174;2023-02-13T02:09:53;7.80;74.10
64670;DHT22;51080;51.690;5.174;2023-02-13T02:15:40;7.80;74.30
64670;DHT22;51080;51.690;5.174;2023-02-13T02:21:53;7.80;74.30
64670;DHT22;51080;51.690;5.174;2023-02-13T02:40:32;7.80;74.60
64670;DHT22;51080;51.690;5.174;2023-02-13T02:46:28;7.80;74.60
64670;DHT22;51080;51.690;5.174;2023-02-13T02:52:18;7.80;74.60
64670;DHT22;51080;51.690;5.174;2023-02-13T02:58:12;7.80;74.60
64670;DHT22;51080;51.690;5.174;2023-02-13T03:04:00;7.80;74.70
64670;DHT22;51080;51.690;5.174;2023-02-13T03:09:52;7.80;74.70
64670;DHT22;51080;51.690;5.174;2023-02-13T03:15:41;7.70;74.80
64670;DHT22;51080;51.690;5.174;2023-02-13T03:27:49;7.70;75.00
64670;DHT22;51080;51.690;5.174;2023-02-13T03:34:04;7.70;75.00
64670;DHT22;51080;51.690;5.174;2023-02-13T03:45:49;7.70;75.20
64670;DHT22;51080;51.690;5.174;2023-02-13T03:51:39;7.70;75.10
64670;DHT22;51080;51.690;5.174;2023-02-13T03:57:25;7.60;75.20
64670;DHT22;51080;51.690;5.174;2023-02-13T04:03:15;7.40;75.50
64670;DHT22;51080;51.690;5.174;2023-02-13T04:09:02;7.10;75.90
64670;DHT22;51080;51.690;5.174;2023-02-13T04:15:41;6.90;76.00
64670;DHT22;51080;51.690;5.174;2023-02-13T04:21:27;6.60;76.00
64670;DHT22;51080;51.690;5.174;2023-02-13T04:27:41;6.40;76.20
64670;DHT22;51080;51.690;5.174;2023-02-13T04:33:25;6.30;76.10
64670;DHT22;51080;51.690;5.174;2023-02-13T04:39:10;6.10;76.30
64670;DHT22;51080;51.690;5.174;2023-02-13T04:44:54;5.90;76.50
64670;DHT22;51080;51.690;5.174;2023-02-13T04:50:38;5.80;76.50
64670;DHT22;51080;51.690;5.174;2023-02-13T04:56:23;5.60;76.70
64670;DHT22;51080;51.690;5.174;2023-02-13T05:02:07;5.50;76.90
64670;DHT22;51080;51.690;5.174;2023-02-13T05:07:51;5.40;77.10
64670;DHT22;51080;51.690;5.174;2023-02-13T05:13:36;5.30;77.20
64670;DHT22;51080;51.690;5.174;2023-02-13T05:19:20;5.30;77.40
64670;DHT22;51080;51.690;5.174;2023-02-13T05:25:05;5.20;77.50
64670;DHT22;51080;51.690;5.174;2023-02-13T05:31:19;5.10;77.70
64670;DHT22;51080;51.690;5.174;2023-02-13T05:37:04;5.10;77.70
64670;DHT22;51080;51.690;5.174;2023-02-13T05:42:48;5.10;77.80
64670;DHT22;51080;51.690;5.174;2023-02-13T05:49:02;5.00;78.30
64670;DHT22;51080;51.690;5.174;2023-02-13T05:54:47;5.00;78.30
64670;DHT22;51080;51.690;5.174;2023-02-13T06:01:02;5.00;78.30
64670;DHT22;51080;51.690;5.174;2023-02-13T06:06:47;4.90;78.10
64670;DHT22;51080;51.690;5.174;2023-02-13T06:13:01;4.80;78.30
64670;DHT22;51080;51.690;5.174;2023-02-13T06:18:46;4.70;78.10
64670;DHT22;51080;51.690;5.174;2023-02-13T06:24:30;4.60;78.10
64670;DHT22;51080;51.690;5.174;2023-02-13T06:30:15;4.80;80.40
64670;DHT22;51080;51.690;5.174;2023-02-13T06:35:58;4.90;79.90
64670;DHT22;51080;51.690;5.174;2023-02-13T06:41:43;4.70;79.40
64670;DHT22;51080;51.690;5.174;2023-02-13T06:47:27;4.50;79.00
64670;DHT22;51080;51.690;5.174;2023-02-13T06:53:12;4.40;78.80
64670;DHT22;51080;51.690;5.174;2023-02-13T06:58:56;4.30;78.60
64670;DHT22;51080;51.690;5.174;2023-02-13T07:05:11;4.30;78.50
64670;DHT22;51080;51.690;5.174;2023-02-13T07:11:26;4.20;78.50
64670;DHT22;51080;51.690;5.174;2023-02-13T07:17:10;4.20;78.30
64670;DHT22;51080;51.690;5.174;2023-02-13T07:23:25;4.10;78.20
64670;DHT22;51080;51.690;5.174;2023-02-13T07:29:09;4.10;78.10
64670;DHT22;51080;51.690;5.174;2023-02-13T07:34:52;4.00;78.10
64670;DHT22;51080;51.690;5.174;2023-02-13T07:40:36;4.00;78.20
64670;DHT22;51080;51.690;5.174;2023-02-13T07:46:21;4.00;78.30
64670;DHT22;51080;51.690;5.174;2023-02-13T07:52:06;4.00;78.30
64670;DHT22;51080;51.690;5.174;2023-02-13T07:57:50;4.00;78.40
64670;DHT22;51080;51.690;5.174;2023-02-13T08:03:35;4.00;78.30
64670;DHT22;51080;51.690;5.174;2023-02-13T08:09:20;4.10;78.30
64670;DHT22;51080;51.690;5.174;2023-02-13T08:15:06;4.10;78.30
64670;DHT22;51080;51.690;5.174;2023-02-13T08:20:51;4.20;78.40
64670;DHT22;51080;51.690;5.174;2023-02-13T08:26:39;4.20;78.60
64670;DHT22;51080;51.690;5.174;2023-02-13T08:32:24;4.30;78.80
64670;DHT22;51080;51.690;5.174;2023-02-13T08:38:22;4.50;78.90
64670;DHT22;51080;51.690;5.174;2023-02-13T08:44:09;4.60;79.40
64670;DHT22;51080;51.690;5.174;2023-02-13T08:50:26;4.80;79.20
64670;DHT22;51080;51.690;5.174;2023-02-13T08:56:15;4.90;80.00
64670;DHT22;51080;51.690;5.174;2023-02-13T09:02:03;5.10;79.40
64670;DHT22;51080;51.690;5.174;2023-02-13T09:07:48;5.20;79.50
64670;DHT22;51080;51.690;5.174;2023-02-13T09:13:34;5.30;79.70
64670;DHT22;51080;51.690;5.174;2023-02-13T09:19:20;5.50;79.70
64670;DHT22;51080;51.690;5.174;2023-02-13T09:25:06;5.60;79.70
64670;DHT22;51080;51.690;5.174;2023-02-13T09:30:51;5.80;79.60
64670;DHT22;51080;51.690;5.174;2023-02-13T09:36:35;5.90;79.80
64670;DHT22;51080;51.690;5.174;2023-02-13T09:42:25;6.00;79.70
64670;DHT22;51080;51.690;5.174;2023-02-13T09:48:24;6.10;79.70
64670;DHT22;51080;51.690;5.174;2023-02-13T09:54:13;6.20;79.40
64670;DHT22;51080;51.690;5.174;2023-02-13T10:00:12;6.40;79.50
64670;DHT22;51080;51.690;5.174;2023-02-13T10:06:14;6.50;79.20
64670;DHT22;51080;51.690;5.174;2023-02-13T10:18:33;6.90;79.10
64670;DHT22;51080;51.690;5.174;2023-02-13T10:24:33;7.10;78.90
64670;DHT22;51080;51.690;5.174;2023-02-13T10:30:31;7.20;78.60
64670;DHT22;51080;51.690;5.174;2023-02-13T10:36:23;7.40;78.60
64670;DHT22;51080;51.690;5.174;2023-02-13T10:55:11;8.00;77.20
64670;DHT22;51080;51.690;5.174;2023-02-13T11:01:15;8.20;76.80
64670;DHT22;51080;51.690;5.174;2023-02-13T11:07:03;8.60;75.30
64670;DHT22;51080;51.690;5.174;2023-02-13T11:12:53;8.80;74.40
64670;DHT22;51080;51.690;5.174;2023-02-13T11:18:40;9.00;73.80
64670;DHT22;51080;51.690;5.174;2023-02-13T11:24:28;9.20;73.50
64670;DHT22;51080;51.690;5.174;2023-02-13T11:30:31;9.40;73.00
64670;DHT22;51080;51.690;5.174;2023-02-13T11:36:26;9.60;72.70
64670;DHT22;51080;51.690;5.174;2023-02-13T11:42:18;9.80;71.80
64670;DHT22;51080;51.690;5.174;2023-02-13T11:48:08;10.10;71.90
64670;DHT22;51080;51.690;5.174;2023-02-13T11:53:58;10.30;71.40
64670;DHT22;51080;51.690;5.174;2023-02-13T11:59:46;10.60;70.80
64670;DHT22;51080;51.690;5.174;2023-02-13T12:05:31;10.90;69.90
64670;DHT22;51080;51.690;5.174;2023-02-13T12:17:19;11.80;68.90
64670;DHT22;51080;51.690;5.174;2023-02-13T12:29:46;12.90;66.70
64670;DHT22;51080;51.690;5.174;2023-02-13T12:35:53;13.40;65.20
64670;DHT22;51080;51.690;5.174;2023-02-13T12:41:48;13.80;64.30
64670;DHT22;51080;51.690;5.174;2023-02-13T12:47:40;14.20;63.50
64670;DHT22;51080;51.690;5.174;2023-02-13T13:00:18;14.90;62.30
64670;DHT22;51080;51.690;5.174;2023-02-13T13:12:34;15.70;60.80
64670;DHT22;51080;51.690;5.174;2023-02-13T13:18:29;16.10;60.10
64670;DHT22;51080;51.690;5.174;2023-02-13T13:24:46;16.50;59.50
64670;DHT22;51080;51.690;5.174;2023-02-13T13:30:32;16.80;58.30
64670;DHT22;51080;51.690;5.174;2023-02-13T13:36:45;17.30;57.90
64670;DHT22;51080;51.690;5.174;2023-02-13T13:42:54;17.60;57.90
64670;DHT22;51080;51.690;5.174;2023-02-13T13:49:10;18.30;56.10
64670;DHT22;51080;51.690;5.174;2023-02-13T13:54:50;18.90;55.10
64670;DHT22;51080;51.690;5.174;2023-02-13T14:00:35;19.30;54.30
64670;DHT22;51080;51.690;5.174;2023-02-13T14:06:25;19.80;53.50
64670;DHT22;51080;51.690;5.174;2023-02-13T14:18:20;20.10;53.50
64670;DHT22;51080;51.690;5.174;2023-02-13T14:24:10;20.10;52.20
64670;DHT22;51080;51.690;5.174;2023-02-13T14:29:55;20.20;52.30
64670;DHT22;51080;51.690;5.174;2023-02-13T14:35:38;20.10;51.90
64670;DHT22;51080;51.690;5.174;2023-02-13T14:41:44;19.90;51.90
64670;DHT22;51080;51.690;5.174;2023-02-13T14:47:34;19.70;51.10
64670;DHT22;51080;51.690;5.174;2023-02-13T14:53:30;19.10;51.30
64670;DHT22;51080;51.690;5.174;2023-02-13T14:59:48;18.20;52.40
64670;DHT22;51080;51.690;5.174;2023-02-13T15:05:34;17.40;55.30
64670;DHT22;51080;51.690;5.174;2023-02-13T15:11:36;17.00;53.70
64670;DHT22;51080;51.690;5.174;2023-02-13T15:17:58;16.50;54.50
64670;DHT22;51080;51.690;5.174;2023-02-13T15:23:48;16.00;56.40
64670;DHT22;51080;51.690;5.174;2023-02-13T15:29:33;15.50;55.70
64670;DHT22;51080;51.690;5.174;2023-02-13T15:35:31;15.20;56.40
64670;DHT22;51080;51.690;5.174;2023-02-13T15:41:21;14.80;57.00
64670;DHT22;51080;51.690;5.174;2023-02-13T15:47:16;14.50;57.90
64670;DHT22;51080;51.690;5.174;2023-02-13T15:53:04;14.20;58.30
64670;DHT22;51080;51.690;5.174;2023-02-13T15:58:53;13.90;58.80
64670;DHT22;51080;51.690;5.174;2023-02-13T16:04:39;13.50;59.40
64670;DHT22;51080;51.690;5.174;2023-02-13T16:10:30;13.30;60.00
64670;DHT22;51080;51.690;5.174;2023-02-13T16:16:16;13.00;60.60
64670;DHT22;51080;51.690;5.174;2023-02-13T16:22:13;12.70;61.00
64670;DHT22;51080;51.690;5.174;2023-02-13T16:33:47;12.30;61.90
64670;DHT22;51080;51.690;5.174;2023-02-13T16:39:34;12.00;62.40
64670;DHT22;51080;51.690;5.174;2023-02-13T16:45:23;11.70;62.90
64670;DHT22;51080;51.690;5.174;2023-02-13T16:51:09;11.40;63.50
64670;DHT22;51080;51.690;5.174;2023-02-13T16:57:04;11.10;63.80
64670;DHT22;51080;51.690;5.174;2023-02-13T17:03:19;10.90;64.10
64670;DHT22;51080;51.690;5.174;2023-02-13T17:09:16;10.60;64.40
64670;DHT22;51080;51.690;5.174;2023-02-13T17:15:01;10.40;64.90
64670;DHT22;51080;51.690;5.174;2023-02-13T17:20:46;10.30;64.90
64670;DHT22;51080;51.690;5.174;2023-02-13T17:26:31;10.00;65.20
64670;DHT22;51080;51.690;5.174;2023-02-13T17:32:18;9.80;65.50
64670;DHT22;51080;51.690;5.174;2023-02-13T17:38:08;9.60;65.70
64670;DHT22;51080;51.690;5.174;2023-02-13T17:43:52;9.40;66.10
64670;DHT22;51080;51.690;5.174;2023-02-13T17:49:38;9.20;66.30
64670;DHT22;51080;51.690;5.174;2023-02-13T17:55:27;9.00;66.50
64670;DHT22;51080;51.690;5.174;2023-02-13T18:01:12;8.80;66.60
64670;DHT22;51080;51.690;5.174;2023-02-13T18:06:57;8.70;66.80
64670;DHT22;51080;51.690;5.174;2023-02-13T18:12:42;8.50;66.90
64670;DHT22;51080;51.690;5.174;2023-02-13T18:18:28;8.30;67.10
64670;DHT22;51080;51.690;5.174;2023-02-13T18:24:12;8.10;67.30
64670;DHT22;51080;51.690;5.174;2023-02-13T18:36:19;7.70;67.50
64670;DHT22;51080;51.690;5.174;2023-02-13T18:42:07;7.60;67.80
64670;DHT22;51080;51.690;5.174;2023-02-13T18:47:51;7.40;68.00
64670;DHT22;51080;51.690;5.174;2023-02-13T18:53:36;7.30;68.20
64670;DHT22;51080;51.690;5.174;2023-02-13T18:59:51;7.10;68.40
64670;DHT22;51080;51.690;5.174;2023-02-13T19:05:39;7.00;68.40
64670;DHT22;51080;51.690;5.174;2023-02-13T19:11:24;6.90;68.70
64670;DHT22;51080;51.690;5.174;2023-02-13T19:17:09;6.80;69.00
64670;DHT22;51080;51.690;5.174;2023-02-13T19:22:55;6.80;69.40
64670;DHT22;51080;51.690;5.174;2023-02-13T19:28:39;6.70;69.40
64670;DHT22;51080;51.690;5.174;2023-02-13T19:34:23;6.60;69.40
64670;DHT22;51080;51.690;5.174;2023-02-13T19:40:08;6.50;69.50
64670;DHT22;51080;51.690;5.174;2023-02-13T19:45:53;6.40;69.50
64670;DHT22;51080;51.690;5.174;2023-02-13T19:51:37;6.30;69.60
64670;DHT22;51080;51.690;5.174;2023-02-13T19:57:22;6.20;69.60
64670;DHT22;51080;51.690;5.174;2023-02-13T20:03:07;6.10;69.80
64670;DHT22;51080;51.690;5.174;2023-02-13T20:08:52;5.90;69.70
64670;DHT22;51080;51.690;5.174;2023-02-13T20:14:37;5.80;69.80
64670;DHT22;51080;51.690;5.174;2023-02-13T20:20:22;5.70;69.90
64670;DHT22;51080;51.690;5.174;2023-02-13T20:26:11;5.60;70.10
64670;DHT22;51080;51.690;5.174;2023-02-13T20:31:56;5.50;70.10
64670;DHT22;51080;51.690;5.174;2023-02-13T20:37:41;5.40;70.20
64670;DHT22;51080;51.690;5.174;2023-02-13T20:43:26;5.30;70.20
64670;DHT22;51080;51.690;5.174;2023-02-13T20:49:11;5.20;70.40
64670;DHT22;51080;51.690;5.174;2023-02-13T20:54:56;5.10;70.50
64670;DHT22;51080;51.690;5.174;2023-02-13T21:00:40;5.10;70.50
64670;DHT22;51080;51.690;5.174;2023-02-13T21:06:31;5.00;70.60
64670;DHT22;51080;51.690;5.174;2023-02-13T21:12:16;4.90;70.60
64670;DHT22;51080;51.690;5.174;2023-02-13T21:18:01;4.80;70.70
64670;DHT22;51080;51.690;5.174;2023-02-13T21:23:47;4.80;70.70
64670;DHT22;51080;51.690;5.174;2023-02-13T21:29:34;4.70;70.80
64670;DHT22;51080;51.690;5.174;2023-02-13T21:35:21;4.60;71.00
64670;DHT22;51080;51.690;5.174;2023-02-13T21:41:13;4.60;71.00
64670;DHT22;51080;51.690;5.174;2023-02-13T21:47:28;4.60;71.30
64670;DHT22;51080;51.690;5.174;2023-02-13T21:53:16;4.60;71.30
64670;DHT22;51080;51.690;5.174;2023-02-13T21:59:31;4.60;71.30
64670;DHT22;51080;51.690;5.174;2023-02-13T22:05:18;4.50;71.20
64670;DHT22;51080;51.690;5.174;2023-02-13T22:11:05;4.40;71.40
64670;DHT22;51080;51.690;5.174;2023-02-13T22:16:50;4.40;71.50
64670;DHT22;51080;51.690;5.174;2023-02-13T22:22:37;4.30;71.40
64670;DHT22;51080;51.690;5.174;2023-02-13T22:28:26;4.20;71.40
64670;DHT22;51080;51.690;5.174;2023-02-13T22:34:11;4.10;71.40
64670;DHT22;51080;51.690;5.174;2023-02-13T22:39:58;4.00;71.50
64670;DHT22;51080;51.690;5.174;2023-02-13T22:45:46;3.90;71.50
64670;DHT22;51080;51.690;5.174;2023-02-13T22:51:35;3.90;71.50
64670;DHT22;51080;51.690;5.174;2023-02-13T22:57:20;3.80;71.50
64670;DHT22;51080;51.690;5.174;2023-02-13T23:03:05;3.70;71.50
64670;DHT22;51080;51.690;5.174;2023-02-13T23:08:52;3.70;71.50
64670;DHT22;51080;51.690;5.174;2023-02-13T23:14:39;3.60;71.60
64670;DHT22;51080;51.690;5.174;2023-02-13T23:26:21;3.50;71.80
64670;DHT22;51080;51.690;5.174;2023-02-13T23:32:09;3.50;71.90
64670;DHT22;51080;51.690;5.174;2023-02-13T23:37:53;3.40;72.00
64670;DHT22;51080;51.690;5.174;2023-02-13T23:43:41;3.40;72.00
64670;DHT22;51080;51.690;5.174;2023-02-13T23:49:28;3.30;72.00
64670;DHT22;51080;51.690;5.174;2023-02-13T23:55:15;3.30;72.00
